createdAt,value
2022-10-24T00:01:35.957Z,100594.60
2022-10-24T00:06:36.995Z,100593.20
2022-10-24T00:09:04.823Z,100588.00
2022-10-24T00:11:32.981Z,100588.20
2022-10-24T00:14:01.324Z,100592.00
2022-10-24T00:16:29.549Z,100591.80
2022-10-24T00:18:57.259Z,100596.80
2022-10-24T00:21:24.919Z,100587.20
2022-10-24T00:23:53.038Z,100580.00
2022-10-24T00:26:20.944Z,100577.40
2022-10-24T00:28:48.810Z,100578.00
2022-10-24T00:31:21.242Z,100586.00
2022-10-24T00:33:49.119Z,100595.60
2022-10-24T00:36:21.698Z,100602.40
2022-10-24T00:38:51.114Z,100603.80
2022-10-24T00:41:42.881Z,100607.00
2022-10-24T00:44:23.973Z,100605.40
2022-10-24T00:47:02.172Z,100598.60
2022-10-24T00:49:44.659Z,100598.20
2022-10-24T00:52:15.487Z,100599.20
2022-10-24T00:54:44.035Z,100591.60
2022-10-24T00:57:19.331Z,100580.40
2022-10-24T00:59:53.048Z,100573.00
2022-10-24T01:02:21.818Z,100567.00
2022-10-24T01:06:40.509Z,100566.60
2022-10-24T01:09:17.316Z,100558.80
2022-10-24T01:12:03.402Z,100552.60
2022-10-24T01:14:53.085Z,100550.00
2022-10-24T01:17:33.511Z,100550.20
2022-10-24T01:20:40.015Z,100547.40
2022-10-24T01:23:30.542Z,100551.20
2022-10-24T01:26:13.675Z,100546.20
2022-10-24T01:29:19.889Z,100542.00
2022-10-24T01:32:07.131Z,100545.40
2022-10-24T01:35:21.297Z,100545.20
2022-10-24T01:38:04.092Z,100538.40
2022-10-24T01:40:46.853Z,100540.40
2022-10-24T01:43:19.696Z,100540.20
2022-10-24T01:45:53.760Z,100540.00
2022-10-24T01:48:25.478Z,100532.20
2022-10-24T01:50:56.127Z,100532.20
2022-10-24T01:53:26.275Z,100538.00
2022-10-24T01:55:54.803Z,100535.80
2022-10-24T01:58:22.672Z,100531.80
2022-10-24T02:00:53.896Z,100531.00
2022-10-24T02:03:27.175Z,100526.40
2022-10-24T02:06:01.167Z,100520.00
2022-10-24T02:08:35.988Z,100508.40
2022-10-24T02:11:07.628Z,100505.40
2022-10-24T02:13:47.803Z,100496.40
2022-10-24T02:16:20.509Z,100483.60
2022-10-24T02:18:52.264Z,100477.40
2022-10-24T02:21:36.177Z,100477.80
2022-10-24T02:24:12.764Z,100479.00
2022-10-24T02:27:18.575Z,100473.40
2022-10-24T02:30:11.022Z,100482.20
2022-10-24T02:32:44.467Z,100483.40
2022-10-24T02:35:15.929Z,100486.20
2022-10-24T02:37:50.276Z,100488.00
2022-10-24T02:40:21.804Z,100487.80
2022-10-24T02:42:56.055Z,100484.20
2022-10-24T02:45:25.576Z,100484.60
2022-10-24T02:48:00.725Z,100482.20
2022-10-24T02:50:29.747Z,100483.40
2022-10-24T02:52:57.819Z,100483.00
2022-10-24T02:55:25.678Z,100478.40
2022-10-24T02:57:53.385Z,100477.20
2022-10-24T03:00:21.378Z,100477.60
2022-10-24T03:02:49.181Z,100472.80
2022-10-24T03:05:17.024Z,100471.20
2022-10-24T03:07:44.855Z,100461.80
2022-10-24T03:10:12.614Z,100459.80
2022-10-24T03:12:40.325Z,100464.40
2022-10-24T03:15:08.850Z,100465.20
2022-10-24T03:17:36.639Z,100461.20
2022-10-24T03:20:05.129Z,100464.80
2022-10-24T03:22:32.880Z,100463.00
2022-10-24T03:25:03.126Z,100466.80
2022-10-24T03:27:30.909Z,100460.60
2022-10-24T03:29:58.688Z,100454.20
2022-10-24T03:35:00.581Z,100450.20
2022-10-24T03:37:28.767Z,100453.40
2022-10-24T03:39:57.096Z,100449.40
2022-10-24T03:42:24.763Z,100453.60
2022-10-24T03:44:52.472Z,100447.40
2022-10-24T03:47:20.270Z,100446.80
2022-10-24T03:49:47.971Z,100438.00
2022-10-24T03:52:15.768Z,100429.60
2022-10-24T03:54:43.638Z,100426.60
2022-10-24T03:57:11.479Z,100427.60
2022-10-24T03:59:39.329Z,100427.20
2022-10-24T04:02:07.144Z,100422.60
2022-10-24T04:04:35.091Z,100419.00
2022-10-24T04:07:02.943Z,100419.60
2022-10-24T04:09:30.718Z,100423.00
2022-10-24T04:11:58.447Z,100422.80
2022-10-24T04:14:26.165Z,100419.80
2022-10-24T04:16:53.954Z,100424.60
2022-10-24T04:19:21.839Z,100429.60
2022-10-24T04:21:49.583Z,100424.00
2022-10-24T04:24:17.440Z,100418.80
2022-10-24T04:26:45.175Z,100416.00
2022-10-24T04:29:13.055Z,100412.20
2022-10-24T04:31:40.843Z,100408.40
2022-10-24T04:34:08.771Z,100399.60
2022-10-24T04:36:36.695Z,100398.40
2022-10-24T04:39:07.873Z,100389.80
2022-10-24T04:41:35.570Z,100387.00
2022-10-24T04:44:04.012Z,100379.00
2022-10-24T04:46:32.090Z,100372.80
2022-10-24T04:48:59.913Z,100364.20
2022-10-24T04:51:27.824Z,100367.80
2022-10-24T04:53:55.555Z,100359.60
2022-10-24T04:56:25.927Z,100355.00
2022-10-24T04:58:53.672Z,100349.00
2022-10-24T05:01:21.397Z,100346.00
2022-10-24T05:03:49.214Z,100340.40
2022-10-24T05:06:17.476Z,100347.80
2022-10-24T05:08:45.250Z,100357.60
2022-10-24T05:11:13.167Z,100355.80
2022-10-24T05:13:42.322Z,100347.00
2022-10-24T05:16:10.078Z,100344.20
2022-10-24T05:18:37.754Z,100343.60
2022-10-24T05:21:05.667Z,100340.40
2022-10-24T05:23:33.316Z,100339.80
2022-10-24T05:26:00.993Z,100334.60
2022-10-24T05:28:28.922Z,100321.00
2022-10-24T05:30:56.635Z,100320.00
2022-10-24T05:33:24.832Z,100316.60
2022-10-24T05:35:53.168Z,100323.00
2022-10-24T05:38:21.093Z,100322.20
2022-10-24T05:40:51.361Z,100334.80
2022-10-24T05:43:19.598Z,100336.60
2022-10-24T05:48:21.902Z,100345.00
2022-10-24T05:50:49.615Z,100348.80
2022-10-24T05:53:17.305Z,100356.40
2022-10-24T05:55:45.216Z,100349.20
2022-10-24T05:58:12.935Z,100344.60
2022-10-24T06:00:40.635Z,100340.00
2022-10-24T06:03:11.304Z,100340.00
2022-10-24T06:05:39.166Z,100343.80
2022-10-24T06:08:07.180Z,100340.80
2022-10-24T06:10:36.080Z,100347.40
2022-10-24T06:13:03.861Z,100355.80
2022-10-24T06:15:32.055Z,100356.00
2022-10-24T06:18:00.472Z,100370.00
2022-10-24T06:20:28.272Z,100368.80
2022-10-24T06:22:55.991Z,100352.80
2022-10-24T06:25:23.798Z,100350.00
2022-10-24T06:27:51.992Z,100358.60
2022-10-24T06:30:19.870Z,100355.40
2022-10-24T06:32:47.854Z,100347.40
2022-10-24T06:35:15.995Z,100352.00
2022-10-24T06:37:47.215Z,100349.00
2022-10-24T06:40:17.769Z,100341.00
2022-10-24T06:42:45.724Z,100340.60
2022-10-24T06:45:13.795Z,100333.20
2022-10-24T06:47:41.602Z,100330.20
2022-10-24T06:50:09.850Z,100327.00
2022-10-24T06:52:37.722Z,100333.80
2022-10-24T06:55:06.404Z,100345.80
2022-10-24T06:57:34.135Z,100374.00
2022-10-24T07:00:02.181Z,100379.20
2022-10-24T07:02:30.120Z,100376.00
2022-10-24T07:04:58.784Z,100388.00
2022-10-24T07:07:26.963Z,100397.00
2022-10-24T07:09:57.562Z,100408.00
2022-10-24T07:12:25.982Z,100392.20
2022-10-24T07:14:54.736Z,100397.80
2022-10-24T07:17:22.430Z,100389.40
2022-10-24T07:19:53.985Z,100394.20
2022-10-24T07:22:22.210Z,100403.60
2022-10-24T07:24:56.192Z,100406.00
2022-10-24T07:27:24.552Z,100411.20
2022-10-24T07:29:53.765Z,100408.00
2022-10-24T07:32:21.828Z,100395.20
2022-10-24T07:34:49.789Z,100401.00
2022-10-24T07:37:18.314Z,100403.60
2022-10-24T07:39:46.761Z,100390.20
2022-10-24T07:42:15.006Z,100386.00
2022-10-24T07:44:42.747Z,100384.00
2022-10-24T07:47:12.046Z,100369.60
2022-10-24T07:49:39.845Z,100363.60
2022-10-24T07:52:07.560Z,100362.60
2022-10-24T07:54:37.281Z,100369.40
2022-10-24T07:57:05.682Z,100369.60
2022-10-24T07:59:48.776Z,100367.20
2022-10-24T08:02:18.516Z,100382.60
2022-10-24T08:04:47.060Z,100389.00
2022-10-24T08:07:14.770Z,100367.60
2022-10-24T08:09:47.077Z,100365.20
2022-10-24T08:12:14.803Z,100370.80
2022-10-24T08:14:43.624Z,100369.80
2022-10-24T08:17:11.333Z,100358.00
2022-10-24T08:19:44.124Z,100356.40
2022-10-24T08:22:12.677Z,100355.40
2022-10-24T08:24:42.159Z,100347.80
2022-10-24T08:27:09.906Z,100348.60
2022-10-24T08:29:37.870Z,100348.00
2022-10-24T08:32:06.888Z,100350.40
2022-10-24T08:34:34.991Z,100349.60
2022-10-24T08:37:03.405Z,100348.60
2022-10-24T08:39:31.175Z,100350.40
2022-10-24T08:42:05.107Z,100352.00
2022-10-24T08:44:35.681Z,100353.20
2022-10-24T08:47:42.459Z,100352.00
2022-10-24T08:50:31.873Z,100356.00
2022-10-24T08:53:30.080Z,100358.00
2022-10-24T08:56:01.426Z,100358.00
2022-10-24T08:58:35.621Z,100355.20
2022-10-24T09:01:32.854Z,100360.80
2022-10-24T09:04:07.170Z,100356.60
2022-10-24T09:06:35.514Z,100358.00
2022-10-24T09:09:12.374Z,100354.60
2022-10-24T09:12:20.806Z,100356.00
2022-10-24T09:14:57.824Z,100358.80
2022-10-24T09:17:33.906Z,100355.80
2022-10-24T09:20:12.702Z,100349.40
2022-10-24T09:22:43.496Z,100340.40
2022-10-24T09:25:16.369Z,100341.80
2022-10-24T09:27:44.911Z,100341.60
2022-10-24T09:30:28.560Z,100349.20
2022-10-24T09:33:07.610Z,100350.80
2022-10-24T09:35:38.778Z,100346.40
2022-10-24T09:38:37.012Z,100348.00
2022-10-24T09:41:13.922Z,100343.00
2022-10-24T09:43:44.599Z,100341.80
2022-10-24T09:46:19.167Z,100338.00
2022-10-24T09:48:56.855Z,100328.40
2022-10-24T09:51:36.184Z,100335.80
2022-10-24T09:54:26.418Z,100336.00
2022-10-24T09:56:59.610Z,100338.20
2022-10-24T09:59:44.363Z,100334.00
2022-10-24T10:02:26.150Z,100327.00
2022-10-24T10:05:19.556Z,100326.40
2022-10-24T10:07:50.466Z,100331.00
2022-10-24T10:10:18.474Z,100338.60
2022-10-24T10:12:57.532Z,100335.00
2022-10-24T10:15:43.543Z,100341.20
2022-10-24T10:18:20.514Z,100340.40
2022-10-24T10:21:19.333Z,100333.00
2022-10-24T10:23:55.087Z,100328.80
2022-10-24T10:26:29.473Z,100338.60
2022-10-24T10:29:27.313Z,100326.20
2022-10-24T10:32:19.525Z,100319.80
2022-10-24T10:34:59.091Z,100325.60
2022-10-24T10:37:32.165Z,100327.40
2022-10-24T10:40:09.084Z,100330.00
2022-10-24T10:43:05.912Z,100327.40
2022-10-24T10:46:12.146Z,100324.60
2022-10-24T10:49:40.023Z,100325.20
2022-10-24T10:52:24.243Z,100325.60
2022-10-24T10:55:36.240Z,100334.80
2022-10-24T10:58:25.858Z,100336.60
2022-10-24T11:01:38.283Z,100332.20
2022-10-24T11:04:27.083Z,100326.80
2022-10-24T11:07:32.469Z,100316.60
2022-10-24T11:10:07.817Z,100318.40
2022-10-24T11:12:42.685Z,100322.60
2022-10-24T11:15:29.321Z,100324.40
2022-10-24T11:18:08.313Z,100326.80
2022-10-24T11:20:43.881Z,100320.80
2022-10-24T11:26:32.763Z,100323.20
2022-10-24T11:29:33.451Z,100330.00
2022-10-24T11:32:18.022Z,100333.60
2022-10-24T11:34:55.994Z,100325.00
2022-10-24T11:37:36.043Z,100324.00
2022-10-24T11:40:15.151Z,100326.40
2022-10-24T11:42:56.221Z,100324.00
2022-10-24T11:45:44.131Z,100319.20
2022-10-24T11:48:30.008Z,100315.00
2022-10-24T11:51:12.029Z,100310.60
2022-10-24T11:53:58.638Z,100313.60
2022-10-24T11:56:47.134Z,100304.80
2022-10-24T11:59:24.331Z,100304.20
2022-10-24T12:01:55.429Z,100301.40
2022-10-24T12:04:52.648Z,100305.60
2022-10-24T12:07:48.629Z,100298.20
2022-10-24T12:10:56.754Z,100290.00
2022-10-24T12:14:21.863Z,100292.20
2022-10-24T12:17:13.595Z,100288.20
2022-10-24T12:19:42.793Z,100295.00
2022-10-24T12:22:21.943Z,100282.80
2022-10-24T12:25:01.497Z,100275.20
2022-10-24T12:27:39.507Z,100280.60
2022-10-24T12:30:10.275Z,100278.80
2022-10-24T12:32:42.138Z,100281.60
2022-10-24T12:35:44.542Z,100273.40
2022-10-24T12:38:59.486Z,100261.40
2022-10-24T12:41:33.378Z,100258.40
2022-10-24T12:44:25.446Z,100260.20
2022-10-24T12:46:55.086Z,100270.80
2022-10-24T12:49:31.848Z,100269.00
2022-10-24T12:52:31.833Z,100265.00
2022-10-24T12:54:59.842Z,100266.80
2022-10-24T12:57:35.663Z,100262.00
2022-10-24T13:00:23.396Z,100259.20
2022-10-24T13:03:07.041Z,100254.40
2022-10-24T13:06:15.057Z,100247.00
2022-10-24T13:09:13.182Z,100246.40
2022-10-24T13:12:09.158Z,100244.40
2022-10-24T13:15:25.137Z,100245.40
2022-10-24T13:18:06.349Z,100241.20
2022-10-24T13:20:40.599Z,100238.60
2022-10-24T13:23:26.411Z,100243.80
2022-10-24T13:25:57.299Z,100245.60
2022-10-24T13:28:30.349Z,100248.20
2022-10-24T13:30:57.961Z,100251.80
2022-10-24T13:33:33.088Z,100249.40
2022-10-24T13:36:10.002Z,100250.20
2022-10-24T13:38:41.898Z,100245.40
2022-10-24T13:41:13.874Z,100247.40
2022-10-24T13:43:51.770Z,100253.20
2022-10-24T13:46:37.520Z,100256.00
2022-10-24T13:49:06.603Z,100254.60
2022-10-24T13:51:46.022Z,100252.80
2022-10-24T13:54:26.346Z,100249.20
2022-10-24T13:56:57.098Z,100249.40
2022-10-24T13:59:39.822Z,100247.20
2022-10-24T14:02:20.225Z,100245.20
2022-10-24T14:04:49.944Z,100243.00
2022-10-24T14:07:28.390Z,100237.80
2022-10-24T14:10:07.560Z,100235.20
2022-10-24T14:12:39.134Z,100234.60
2022-10-24T14:15:21.522Z,100237.20
2022-10-24T14:17:58.883Z,100234.40
2022-10-24T14:20:36.468Z,100233.00
2022-10-24T14:23:23.285Z,100234.20
2022-10-24T14:26:00.139Z,100236.00
2022-10-24T14:28:36.753Z,100237.20
2022-10-24T14:31:08.829Z,100233.20
2022-10-24T14:33:50.504Z,100232.80
2022-10-24T14:36:21.214Z,100238.80
2022-10-24T14:38:51.165Z,100244.00
2022-10-24T14:41:21.067Z,100243.20
2022-10-24T14:43:48.807Z,100248.80
2022-10-24T14:46:16.385Z,100248.40
2022-10-24T14:48:48.174Z,100254.00
2022-10-24T14:51:32.875Z,100259.60
2022-10-24T14:54:19.227Z,100264.20
2022-10-24T14:56:47.458Z,100259.80
2022-10-24T14:59:38.207Z,100259.00
2022-10-24T15:02:24.987Z,100255.80
2022-10-24T15:05:13.693Z,100264.40
2022-10-24T15:07:52.363Z,100267.20
2022-10-24T15:10:39.880Z,100264.60
2022-10-24T15:13:23.613Z,100261.40
2022-10-24T15:15:55.853Z,100252.40
2022-10-24T15:18:29.505Z,100248.80
2022-10-24T15:21:11.768Z,100246.40
2022-10-24T15:23:50.254Z,100251.20
2022-10-24T15:26:25.064Z,100254.80
2022-10-24T15:29:21.088Z,100250.80
2022-10-24T15:31:51.054Z,100251.60
2022-10-24T15:34:22.986Z,100249.40
2022-10-24T15:36:53.245Z,100252.40
2022-10-24T15:39:27.283Z,100261.20
2022-10-24T15:41:55.368Z,100260.80
2022-10-24T15:44:28.548Z,100265.40
2022-10-24T15:46:56.526Z,100269.40
2022-10-24T15:49:24.389Z,100267.00
2022-10-24T15:51:52.123Z,100271.00
2022-10-24T15:54:22.892Z,100270.40
2022-10-24T15:56:51.671Z,100273.00
2022-10-24T15:59:20.182Z,100271.40
2022-10-24T16:01:54.564Z,100273.80
2022-10-24T16:04:22.893Z,100271.40
2022-10-24T16:06:52.689Z,100269.80
2022-10-24T16:09:25.092Z,100272.80
2022-10-24T16:11:53.690Z,100268.20
2022-10-24T16:14:26.697Z,100264.40
2022-10-24T16:16:57.157Z,100262.80
2022-10-24T16:19:29.073Z,100254.80
2022-10-24T16:22:01.514Z,100258.60
2022-10-24T16:24:29.406Z,100262.60
2022-10-24T16:26:57.292Z,100262.60
2022-10-24T16:29:25.036Z,100262.60
2022-10-24T16:31:52.797Z,100263.20
2022-10-24T16:34:20.584Z,100262.80
2022-10-24T16:36:48.219Z,100264.80
2022-10-24T16:39:16.367Z,100272.00
2022-10-24T16:41:46.270Z,100270.20
2022-10-24T16:44:14.801Z,100263.80
2022-10-24T16:46:42.752Z,100262.40
2022-10-24T16:49:10.533Z,100258.60
2022-10-24T16:51:41.815Z,100268.60
2022-10-24T16:54:11.808Z,100264.60
2022-10-24T16:56:39.535Z,100268.80
2022-10-24T16:59:10.316Z,100273.00
2022-10-24T17:01:40.966Z,100276.60
2022-10-24T17:04:09.066Z,100275.40
2022-10-24T17:06:38.118Z,100275.00
2022-10-24T17:09:05.790Z,100272.00
2022-10-24T17:11:44.874Z,100278.40
2022-10-24T17:14:14.406Z,100278.80
2022-10-24T17:16:43.824Z,100286.40
2022-10-24T17:19:16.294Z,100289.20
2022-10-24T17:21:50.885Z,100290.00
2022-10-24T17:24:24.411Z,100287.00
2022-10-24T17:26:52.919Z,100278.20
2022-10-24T17:29:38.739Z,100274.80
2022-10-24T17:32:07.158Z,100272.80
2022-10-24T17:34:35.062Z,100278.60
2022-10-24T17:38:04.960Z,100279.20
2022-10-24T17:40:47.559Z,100273.80
2022-10-24T17:43:20.830Z,100263.40
2022-10-24T17:45:49.990Z,100265.60
2022-10-24T17:48:18.627Z,100265.40
2022-10-24T17:50:46.602Z,100272.40
2022-10-24T17:53:17.736Z,100272.00
2022-10-24T17:55:47.556Z,100269.40
2022-10-24T17:58:16.470Z,100267.40
2022-10-24T18:00:45.222Z,100262.40
2022-10-24T18:03:14.470Z,100263.40
2022-10-24T18:05:42.249Z,100269.00
2022-10-24T18:08:11.899Z,100270.80
2022-10-24T18:10:41.489Z,100275.60
2022-10-24T18:13:10.031Z,100281.40
2022-10-24T18:15:38.112Z,100279.40
2022-10-24T18:18:06.202Z,100276.60
2022-10-24T18:20:34.943Z,100268.60
2022-10-24T18:23:03.678Z,100272.00
2022-10-24T18:25:31.389Z,100277.60
2022-10-24T18:27:59.074Z,100278.60
2022-10-24T18:30:27.407Z,100273.20
2022-10-24T18:32:55.295Z,100273.20
2022-10-24T18:35:23.000Z,100274.40
2022-10-24T18:37:53.949Z,100277.00
2022-10-24T18:40:22.339Z,100279.20
2022-10-24T18:42:53.448Z,100270.80
2022-10-24T18:45:27.149Z,100272.40
2022-10-24T18:47:55.129Z,100273.80
2022-10-24T18:50:24.939Z,100268.20
2022-10-24T18:53:00.906Z,100259.60
2022-10-24T18:55:31.566Z,100254.40
2022-10-24T19:11:25.139Z,100247.60
2022-10-24T19:13:53.110Z,100248.20
2022-10-24T19:16:28.593Z,100242.60
2022-10-24T19:19:01.288Z,100243.00
2022-10-24T19:21:29.019Z,100240.40
2022-10-24T19:23:56.719Z,100237.20
2022-10-24T19:26:24.506Z,100235.20
2022-10-24T19:28:52.217Z,100233.40
2022-10-24T19:31:20.076Z,100230.60
2022-10-24T19:33:47.809Z,100227.80
2022-10-24T19:36:19.043Z,100224.80
2022-10-24T19:38:47.397Z,100227.00
2022-10-24T19:41:15.335Z,100231.40
2022-10-24T19:43:43.887Z,100234.00
2022-10-24T19:46:20.128Z,100227.80
2022-10-24T19:48:49.563Z,100225.40
2022-10-24T19:51:19.077Z,100218.20
2022-10-24T19:53:51.428Z,100217.60
2022-10-24T19:56:26.708Z,100217.80
2022-10-24T19:58:55.448Z,100218.00
2022-10-24T20:01:26.998Z,100225.40
2022-10-24T20:03:55.898Z,100229.80
2022-10-24T20:06:26.692Z,100229.20
2022-10-24T20:08:54.519Z,100227.40
2022-10-24T20:11:22.951Z,100225.80
2022-10-24T20:13:50.667Z,100227.80
2022-10-24T20:16:18.561Z,100229.00
2022-10-24T20:18:46.932Z,100229.20
2022-10-24T20:21:17.908Z,100230.60
2022-10-24T20:23:48.033Z,100238.20
2022-10-24T20:26:24.066Z,100242.20
2022-10-24T20:28:55.367Z,100232.60
2022-10-24T20:31:36.830Z,100228.80
2022-10-24T20:34:09.841Z,100230.00
2022-10-24T20:36:44.661Z,100233.40
2022-10-24T20:39:16.127Z,100234.20
2022-10-24T20:41:43.990Z,100231.40
2022-10-24T20:44:12.266Z,100237.60
2022-10-24T20:46:40.029Z,100240.80
2022-10-24T20:49:07.739Z,100235.60
2022-10-24T20:51:35.722Z,100233.20
2022-10-24T20:54:08.079Z,100233.00
2022-10-24T20:56:41.158Z,100231.00
2022-10-24T20:59:13.593Z,100238.00
2022-10-24T21:01:41.578Z,100234.60
2022-10-24T21:04:09.595Z,100235.80
2022-10-24T21:06:37.451Z,100235.00
2022-10-24T21:09:06.866Z,100234.60
2022-10-24T21:11:36.075Z,100235.60
2022-10-24T21:14:07.543Z,100232.60
2022-10-24T21:16:35.762Z,100235.20
2022-10-24T21:19:04.136Z,100230.00
2022-10-24T21:21:32.234Z,100231.80
2022-10-24T21:24:04.223Z,100235.40
2022-10-24T21:26:38.449Z,100240.60
2022-10-24T21:29:14.820Z,100243.60
2022-10-24T21:31:50.517Z,100244.40
2022-10-24T21:34:19.783Z,100248.80
2022-10-24T21:36:48.012Z,100251.20
2022-10-24T21:39:17.144Z,100251.00
2022-10-24T21:41:45.199Z,100254.60
2022-10-24T21:44:14.368Z,100258.60
2022-10-24T21:46:42.349Z,100257.80
2022-10-24T21:49:10.774Z,100256.00
2022-10-24T21:51:41.347Z,100257.80
2022-10-24T21:54:20.149Z,100256.60
2022-10-24T21:56:48.674Z,100253.00
2022-10-24T21:59:19.697Z,100253.80
2022-10-24T22:01:49.896Z,100256.00
2022-10-24T22:04:18.257Z,100257.20
2022-10-24T22:06:46.866Z,100257.00
2022-10-24T22:09:23.823Z,100256.40
2022-10-24T22:11:54.429Z,100257.60
2022-10-24T22:14:22.159Z,100259.00
2022-10-24T22:16:49.818Z,100263.20
2022-10-24T22:19:17.549Z,100268.80
2022-10-24T22:21:48.460Z,100266.60
2022-10-24T22:24:20.972Z,100265.60
2022-10-24T22:26:49.373Z,100266.00
2022-10-24T22:29:21.713Z,100274.60
2022-10-24T22:31:51.671Z,100271.40
2022-10-24T22:34:24.117Z,100277.00
2022-10-24T22:37:22.682Z,100274.40
2022-10-24T22:39:50.867Z,100286.80
2022-10-24T22:42:20.300Z,100284.00
2022-10-24T22:44:49.189Z,100285.60
2022-10-24T22:47:39.780Z,100290.80
2022-10-24T22:50:50.637Z,100282.20
2022-10-24T22:53:28.812Z,100281.80
2022-10-24T22:56:21.252Z,100287.20
2022-10-24T22:58:49.872Z,100290.60
2022-10-24T23:01:45.805Z,100293.60
2022-10-24T23:04:34.983Z,100292.80
2022-10-24T23:07:26.660Z,100292.40
2022-10-24T23:09:55.729Z,100291.00
2022-10-24T23:12:24.362Z,100296.00
2022-10-24T23:14:53.497Z,100295.00
2022-10-24T23:17:27.777Z,100294.80
2022-10-24T23:19:56.868Z,100295.00
2022-10-24T23:22:29.644Z,100288.20
2022-10-24T23:25:01.098Z,100284.40
2022-10-24T23:27:42.382Z,100282.20
2022-10-24T23:30:17.577Z,100286.20
2022-10-24T23:32:48.079Z,100283.20
2022-10-24T23:35:19.647Z,100287.40
2022-10-24T23:37:52.391Z,100281.40
2022-10-24T23:40:29.189Z,100281.80
2022-10-24T23:42:57.801Z,100281.60
2022-10-24T23:45:30.044Z,100282.60
2022-10-24T23:48:38.327Z,100280.80
2022-10-24T23:51:25.297Z,100276.80
2022-10-24T23:53:55.798Z,100279.40
2022-10-24T23:56:27.464Z,100278.40
2022-10-24T23:58:56.273Z,100277.80
